Home   Weather   Spain   Las Palmas   Past weeks
Flag for Spain

Past Weather in Las Palmas, Las Palmas, Spain — Yesterday and Last 2 Weeks

Currently: 82 °F. Sunny. (Weather station: Las Palmas De Gran Canaria / Gando, Spain). See more current weather

Past Weather in Las Palmas — Graph

°F

Las Palmas Temperature Yesterday

Maximum temperature yesterday: 90 °F (at 7:00 pm)
Minimum temperature yesterday: 72 °F (at 12:30 am)
Average temperature yesterday: 80 °F

High & Low Weather Summary for the Past Weeks

 TemperatureHumidityPressure
High90 °F (Jul 19, 7:00 pm)94% (Jul 7, 7:30 am)30.09 "Hg (Jul 7, 7:30 am)
Low66 °F (Jul 7, 7:30 am)18% (Jul 19, 11:00 am)29.92 "Hg (Jul 13, 3:00 am)
Average75 °F67%30.01 "Hg
* Reported Jul 5 8:00 am — Jul 20 8:30 am, Las Palmas. Weather by CustomWeather, © 2024

Note: Actual official high and low records may vary slightly from our data, if they occured in-between our weather recording intervals... More about our weather records

Las Palmas Weather History for the Previous 24 Hours

Scroll right to see more
 ConditionsComfort  
Time TempWeatherWind HumidityBarometerVisibility
8:30 am
Sat, Jul 20
79 °FSunny.26 mph32%30.01 "Hg10 mi
8:00 am79 °FSunny.25 mph30%30.01 "Hg10 mi
7:30 am77 °FSunny.25 mph34%29.98 "Hg10 mi
7:00 am77 °FClear.22 mph42%29.98 "Hg10 mi
6:30 am77 °FClear.23 mph44%29.98 "Hg10 mi
6:00 am77 °FClear.22 mph51%29.95 "Hg10 mi
5:30 am77 °FClear.22 mph51%29.98 "Hg10 mi
5:00 am75 °FClear.24 mph57%29.98 "Hg10 mi
4:30 am75 °FClear.22 mph61%29.98 "Hg10 mi
4:00 am75 °FClear.22 mph61%29.98 "Hg10 mi
3:30 am75 °FClear.22 mph65%29.98 "Hg10 mi
3:00 am75 °FClear.21 mph65%30.01 "Hg10 mi
2:30 am77 °FClear.23 mph57%30.01 "Hg10 mi
2:00 am77 °FClear.22 mph57%30.01 "Hg10 mi
1:30 am77 °FClear.21 mph57%30.01 "Hg10 mi
1:00 am79 °FClear.20 mph48%30.01 "Hg10 mi
12:30 am77 °FClear.21 mph57%30.04 "Hg10 mi
12:00 am79 °FClear.23 mph54%30.04 "Hg10 mi
11:30 pm
Fri, Jul 19
79 °FClear.23 mph54%30.07 "Hg10 mi
11:00 pm79 °FClear.23 mph58%30.07 "Hg10 mi
10:30 pm79 °FClear.23 mph54%30.04 "Hg10 mi
10:00 pm79 °FClear.25 mph51%30.04 "Hg10 mi
9:30 pm79 °FClear.25 mph42%30.04 "Hg10 mi
9:00 pm86 °FClear.26 mph24%30.01 "Hg10 mi
8:00 pm86 °FSunny.23 mph24%30.01 "Hg10 mi
7:30 pm86 °FSunny.23 mph29%30.01 "Hg10 mi
7:00 pm90 °FSunny.26 mph22%30.01 "Hg10 mi
6:30 pm88 °FSunny.28 mph24%30.01 "Hg10 mi
6:00 pm88 °FSunny.26 mph25%30.01 "Hg10 mi
5:30 pm88 °FSunny.29 mph31%30.01 "Hg10 mi
5:00 pm88 °FSunny.29 mph29%30.01 "Hg10 mi
4:30 pm88 °FSunny.25 mph40%30.01 "Hg10 mi
4:00 pm84 °FSunny.30 mph48%30.01 "Hg10 mi
3:30 pm84 °FSunny.32 mph51%30.01 "Hg10 mi
2:30 pm84 °FSunny.31 mph48%30.01 "Hg10 mi
1:30 pm88 °FSunny.25 mph40%30.01 "Hg10 mi
1:00 pm88 °FSunny.24 mph38%30.04 "Hg10 mi
12:00 pm88 °FSunny.25 mph27%30.04 "Hg10 mi
11:30 am86 °FSunny.23 mph25%30.04 "Hg10 mi
11:00 am84 °FSunny.23 mph18%30.04 "Hg10 mi
10:30 am84 °FSunny.22 mph23%30.07 "Hg10 mi
10:00 am81 °FPassing clouds.23 mph48%30.07 "HgN/A
Weather by CustomWeather, © 2024

See weather overview